Time;durP1;ratioP1;P1;durP2;ratioP2;P2;SDS_P1;SDS_P2;PMS_P1;PMS_P2;Temp;Humidity;BMP_temperature;BMP_pressure;BME280_temperature;BME280_humidity;BME280_pressure;Samples;Min_cycle;Max_cycle;Signal;HPM_P1;HPM_P2
2023/09/13 00:02:09;;;;;;;7.00;4.10;;;;;;;;;;5075793;28;20049;-59
2023/09/13 00:04:35;;;;;;;5.35;3.88;;;;;;;;;;5075867;28;20409;-59
2023/09/13 00:07:03;;;;;;;5.75;3.92;;;;;;;;;;5075792;28;20413;-59
2023/09/13 00:09:30;;;;;;;5.28;3.60;;;;;;;;;;5075806;28;20048;-59
2023/09/13 00:12:01;;;;;;;5.93;3.63;;;;;;;;;;5075567;28;20052;-59
2023/09/13 00:14:30;;;;;;;6.50;4.30;;;;;;;;;;5075508;28;20076;-59
2023/09/13 00:16:57;;;;;;;;;;;;;;;;;;5076000;28;20366;-58
2023/09/13 00:19:23;;;;;;;5.65;3.50;;;;;;;;;;5075788;28;19921;-59
2023/09/13 00:21:50;;;;;;;6.95;3.78;;;;;;;;;;5075359;28;20064;-59
2023/09/13 00:24:17;;;;;;;6.28;3.65;;;;;;;;;;5075581;28;20406;-59
2023/09/13 00:26:44;;;;;;;8.93;5.53;;;;;;;;;;5075513;28;20048;-59
2023/09/13 00:29:15;;;;;;;9.88;5.95;;;;;;;;;;5074973;28;20504;-59
2023/09/13 00:31:46;;;;;;;11.00;6.10;;;;;;;;;;5074798;28;20061;-58
2023/09/13 00:34:16;;;;;;;11.90;7.22;;;;;;;;;;5074872;28;20060;-59
2023/09/13 00:36:43;;;;;;;11.35;7.38;;;;;;;;;;5074729;28;20085;-59
2023/09/13 00:39:12;;;;;;;11.32;6.85;;;;;;;;;;5074598;28;20056;-58
2023/09/13 00:41:45;;;;;;;12.27;7.45;;;;;;;;;;5075274;28;20063;-58
2023/09/13 00:44:14;;;;;;;11.27;6.85;;;;;;;;;;5074878;28;20052;-59
2023/09/13 00:46:41;;;;;;;12.98;7.43;;;;;;;;;;5074853;28;20064;-59
2023/09/13 00:49:10;;;;;;;12.13;8.13;;;;;;;;;;5074882;28;20409;-59
2023/09/13 00:51:41;;;;;;;12.02;7.28;;;;;;;;;;5074476;28;20063;-59
2023/09/13 00:54:09;;;;;;;11.25;6.97;;;;;;;;;;5075038;28;20052;-59
2023/09/13 00:56:38;;;;;;;10.48;7.60;;;;;;;;;;5074936;28;20433;-58
2023/09/13 00:59:09;;;;;;;10.13;6.90;;;;;;;;;;5074510;28;20052;-59
2023/09/13 01:01:38;;;;;;;11.43;6.82;;;;;;;;;;5074554;28;20052;-59
2023/09/13 01:04:05;;;;;;;;;;;;;;;;;;5075499;28;20060;-59
2023/09/13 01:06:32;;;;;;;11.85;6.13;;;;;;;;;;5074585;28;19924;-59
2023/09/13 01:09:03;;;;;;;12.23;7.28;;;;;;;;;;5074622;28;20481;-59
2023/09/13 01:11:35;;;;;;;10.90;6.28;;;;;;;;;;5074710;28;20532;-59
2023/09/13 01:14:02;;;;;;;9.80;5.65;;;;;;;;;;5074260;28;20079;-59
2023/09/13 01:16:39;;;;;;;10.85;7.22;;;;;;;;;;5074246;28;20060;-59
2023/09/13 01:19:20;;;;;;;12.60;7.47;;;;;;;;;;5074511;28;20052;-59
2023/09/13 01:22:00;;;;;;;12.68;7.93;;;;;;;;;;5074210;28;20386;-59
2023/09/13 01:24:43;;;;;;;12.63;8.07;;;;;;;;;;5074446;28;20063;-59
2023/09/13 01:27:25;;;;;;;18.63;9.30;;;;;;;;;;5074431;28;20063;-59
2023/09/13 01:29:54;;;;;;;15.68;8.05;;;;;;;;;;5073926;28;20052;-59
2023/09/13 01:32:21;;;;;;;13.00;9.00;;;;;;;;;;5073961;28;20474;-59
2023/09/13 01:34:48;;;;;;;13.95;9.13;;;;;;;;;;5074184;28;20640;-59
2023/09/13 01:37:15;;;;;;;13.70;9.77;;;;;;;;;;5073627;28;20500;-59
2023/09/13 01:39:42;;;;;;;14.02;8.93;;;;;;;;;;5074053;28;20052;-59
2023/09/13 01:42:11;;;;;;;13.38;9.52;;;;;;;;;;5073791;28;20056;-58
2023/09/13 01:44:41;;;;;;;13.57;9.07;;;;;;;;;;5073993;28;20052;-59
2023/09/13 01:47:13;;;;;;;14.60;9.35;;;;;;;;;;5073890;28;20064;-59
2023/09/13 01:49:45;;;;;;;16.70;9.75;;;;;;;;;;5073488;28;20056;-59
2023/09/13 01:52:12;;;;;;;15.90;9.00;;;;;;;;;;5073679;28;20059;-59
2023/09/13 01:54:38;;;;;;;18.02;10.07;;;;;;;;;;5073306;28;20504;-59
2023/09/13 01:57:06;;;;;;;17.23;10.45;;;;;;;;;;5073752;28;20053;-59
2023/09/13 01:59:35;;;;;;;17.02;11.23;;;;;;;;;;5072794;28;20056;-59
2023/09/13 02:02:01;;;;;;;14.73;9.07;;;;;;;;;;5070586;28;20059;-59
2023/09/13 02:04:32;;;;;;;18.73;11.10;;;;;;;;;;5073271;28;20064;-59
2023/09/13 02:06:59;;;;;;;17.00;9.98;;;;;;;;;;5073453;28;20493;-59
2023/09/13 02:09:27;;;;;;;18.25;10.02;;;;;;;;;;5073757;28;20048;-59
2023/09/13 02:11:53;;;;;;;22.77;11.50;;;;;;;;;;5073125;28;20063;-59
2023/09/13 02:14:23;;;;;;;19.40;11.82;;;;;;;;;;5073408;28;20060;-59
2023/09/13 02:16:56;;;;;;;20.27;11.05;;;;;;;;;;5073183;28;20049;-59
2023/09/13 02:19:23;;;;;;;22.52;12.45;;;;;;;;;;5073416;28;20489;-59
2023/09/13 02:21:56;;;;;;;18.75;11.13;;;;;;;;;;5073221;28;20088;-59
2023/09/13 02:24:23;;;;;;;22.75;13.10;;;;;;;;;;5073471;28;20048;-59
2023/09/13 02:26:54;;;;;;;20.33;11.88;;;;;;;;;;5073248;28;20182;-59
2023/09/13 02:29:21;;;;;;;20.02;12.35;;;;;;;;;;5073432;28;20059;-59
2023/09/13 02:31:48;;;;;;;23.50;14.43;;;;;;;;;;5072871;28;20059;-59
2023/09/13 02:34:15;;;;;;;20.42;12.48;;;;;;;;;;5073085;28;20064;-59
2023/09/13 02:36:45;;;;;;;23.02;13.35;;;;;;;;;;5072862;28;20063;-59
2023/09/13 02:42:06;;;;;;;21.73;12.98;;;;;;;;;;5110654;27;20703;-59
2023/09/13 02:44:34;;;;;;;23.52;13.95;;;;;;;;;;5109791;28;20484;-58
2023/09/13 02:47:01;;;;;;;26.20;13.63;;;;;;;;;;5109993;28;20048;-58
2023/09/13 02:49:28;;;;;;;21.83;13.73;;;;;;;;;;5110185;28;20425;-58
2023/09/13 02:51:55;;;;;;;23.60;12.98;;;;;;;;;;5110281;28;20058;-58
2023/09/13 02:54:22;;;;;;;21.88;13.30;;;;;;;;;;5110170;28;20067;-58
2023/09/13 02:56:50;;;;;;;19.73;11.98;;;;;;;;;;5110311;28;20054;-58
2023/09/13 02:59:21;;;;;;;18.35;11.10;;;;;;;;;;5110046;28;20055;-58
2023/09/13 03:01:48;;;;;;;20.20;11.77;;;;;;;;;;5109068;28;20048;-58
2023/09/13 03:04:15;;;;;;;20.90;12.05;;;;;;;;;;5110067;28;20059;-58
2023/09/13 03:06:42;;;;;;;21.13;11.45;;;;;;;;;;5109969;28;20405;-58
2023/09/13 03:09:13;;;;;;;21.50;12.07;;;;;;;;;;5109812;28;20052;-59
2023/09/13 03:11:40;;;;;;;19.77;11.10;;;;;;;;;;5110174;28;20500;-58
2023/09/13 03:14:18;;;;;;;16.42;10.05;;;;;;;;;;5109649;28;20056;-58
2023/09/13 03:16:46;;;;;;;19.25;10.52;;;;;;;;;;5110133;28;20048;-59
2023/09/13 03:19:16;;;;;;;17.15;9.35;;;;;;;;;;5109843;28;20485;-58
2023/09/13 03:21:43;;;;;;;15.57;9.35;;;;;;;;;;5109944;28;20059;-59
2023/09/13 03:24:10;;;;;;;16.30;9.38;;;;;;;;;;5109621;28;20492;-58
2023/09/13 03:26:37;;;;;;;14.65;9.13;;;;;;;;;;5109881;28;20059;-59
2023/09/13 03:29:04;;;;;;;15.73;10.05;;;;;;;;;;5109418;28;20066;-58
2023/09/13 03:31:36;;;;;;;22.73;11.30;;;;;;;;;;5109763;28;20066;-58
2023/09/13 03:34:04;;;;;;;23.20;10.55;;;;;;;;;;5091957;28;20052;-59
2023/09/13 03:36:31;;;;;;;19.67;10.05;;;;;;;;;;5089290;28;20059;-58
2023/09/13 03:38:58;;;;;;;20.67;10.52;;;;;;;;;;5089055;28;20056;-58
2023/09/13 03:41:26;;;;;;;22.52;10.43;;;;;;;;;;5088322;28;20056;-58
2023/09/13 03:43:53;;;;;;;19.25;9.98;;;;;;;;;;5088576;28;20067;-58
2023/09/13 03:46:20;;;;;;;19.80;10.25;;;;;;;;;;5088311;28;20052;-59
2023/09/13 03:48:47;;;;;;;20.70;9.70;;;;;;;;;;5088336;28;20052;-58
2023/09/13 03:51:15;;;;;;;19.88;9.95;;;;;;;;;;5088002;28;20044;-58
2023/09/13 03:53:42;;;;;;;14.93;8.88;;;;;;;;;;5074699;28;20053;-58
2023/09/13 03:56:08;;;;;;;19.13;9.98;;;;;;;;;;5074921;28;20048;-59
2023/09/13 03:58:36;;;;;;;18.60;9.25;;;;;;;;;;5072914;28;20383;-59
2023/09/13 04:01:04;;;;;;;18.73;10.20;;;;;;;;;;5075287;28;20492;-58
2023/09/13 04:03:32;;;;;;;18.20;10.52;;;;;;;;;;5075124;28;20083;-58
2023/09/13 04:05:59;;;;;;;23.83;13.02;;;;;;;;;;5075445;28;20059;-59
2023/09/13 04:08:28;;;;;;;20.20;12.27;;;;;;;;;;5075071;28;20056;-58
2023/09/13 04:10:55;;;;;;;21.73;11.20;;;;;;;;;;5074932;28;20044;-59
2023/09/13 04:13:21;;;;;;;24.40;13.07;;;;;;;;;;5074628;28;20056;-58
2023/09/13 04:15:48;;;;;;;23.45;13.23;;;;;;;;;;5074692;28;20490;-59
2023/09/13 04:18:15;;;;;;;21.88;11.77;;;;;;;;;;5075192;28;20477;-59
2023/09/13 04:20:42;;;;;;;22.17;12.65;;;;;;;;;;5074667;28;20048;-58
2023/09/13 04:23:10;;;;;;;27.88;14.00;;;;;;;;;;5074735;28;20506;-59
2023/09/13 04:25:38;;;;;;;25.27;13.00;;;;;;;;;;5075077;28;20052;-58
2023/09/13 04:28:05;;;;;;;21.45;13.30;;;;;;;;;;5074310;28;20048;-58
2023/09/13 04:30:32;;;;;;;28.10;14.93;;;;;;;;;;5074612;28;20397;-59
2023/09/13 04:32:59;;;;;;;31.35;14.60;;;;;;;;;;5074623;28;20087;-58
2023/09/13 04:35:26;;;;;;;33.65;14.85;;;;;;;;;;5074446;28;20048;-59
2023/09/13 04:37:53;;;;;;;47.92;18.30;;;;;;;;;;5074315;28;20056;-59
2023/09/13 04:40:21;;;;;;;51.28;18.45;;;;;;;;;;5073851;28;20067;-58
2023/09/13 04:42:55;;;;;;;56.55;19.45;;;;;;;;;;5074267;28;20048;-59
2023/09/13 04:45:22;;;;;;;58.40;19.63;;;;;;;;;;5074241;28;20067;-58
2023/09/13 04:47:49;;;;;;;56.70;19.52;;;;;;;;;;5073807;28;20512;-58
2023/09/13 04:50:15;;;;;;;50.33;18.67;;;;;;;;;;5073934;28;20072;-59
2023/09/13 04:52:42;;;;;;;64.28;20.33;;;;;;;;;;5073582;28;20053;-59
2023/09/13 04:55:09;;;;;;;62.45;22.15;;;;;;;;;;5073836;28;20048;-59
2023/09/13 04:57:36;;;;;;;54.00;21.30;;;;;;;;;;5073525;28;20059;-59
2023/09/13 05:00:07;;;;;;;68.82;20.40;;;;;;;;;;5073515;28;20052;-59
2023/09/13 05:02:34;;;;;;;53.17;20.77;;;;;;;;;;5073751;28;20053;-59
2023/09/13 05:05:01;;;;;;;53.47;20.77;;;;;;;;;;5072559;28;20055;-59
2023/09/13 05:07:28;;;;;;;57.33;20.92;;;;;;;;;;5073620;28;20057;-60
2023/09/13 05:09:55;;;;;;;50.47;20.23;;;;;;;;;;5073275;28;20052;-59
2023/09/13 05:12:22;;;;;;;49.25;19.63;;;;;;;;;;5073169;28;20063;-59
2023/09/13 05:14:49;;;;;;;51.47;19.77;;;;;;;;;;5073439;28;20072;-59
2023/09/13 05:17:17;;;;;;;47.67;19.40;;;;;;;;;;5073096;28;20049;-59
2023/09/13 05:19:44;;;;;;;39.83;18.23;;;;;;;;;;5072887;28;20056;-59
2023/09/13 05:22:10;;;;;;;53.05;18.75;;;;;;;;;;5072896;28;20056;-59
2023/09/13 05:24:37;;;;;;;44.65;18.35;;;;;;;;;;5072938;28;20052;-59
2023/09/13 05:27:04;;;;;;;42.75;18.00;;;;;;;;;;5073205;28;20406;-59
2023/09/13 05:29:31;;;;;;;44.22;17.83;;;;;;;;;;5073302;28;20519;-59
2023/09/13 05:31:59;;;;;;;36.20;17.35;;;;;;;;;;5072915;28;20482;-59
2023/09/13 05:34:27;;;;;;;37.35;16.40;;;;;;;;;;5073063;28;20469;-59
2023/09/13 05:36:54;;;;;;;39.80;17.33;;;;;;;;;;5073305;28;20056;-59
2023/09/13 05:39:21;;;;;;;38.80;16.25;;;;;;;;;;5073051;28;20060;-59
2023/09/13 05:41:49;;;;;;;46.22;19.05;;;;;;;;;;5072371;28;20052;-59
2023/09/13 05:44:18;;;;;;;54.10;18.67;;;;;;;;;;5072990;28;20052;-58
2023/09/13 05:46:45;;;;;;;43.45;18.35;;;;;;;;;;5072967;28;20057;-58
2023/09/13 05:49:12;;;;;;;59.45;19.85;;;;;;;;;;5072962;28;20374;-59
2023/09/13 05:51:40;;;;;;;44.28;19.65;;;;;;;;;;5072259;28;20044;-58
2023/09/13 05:54:07;;;;;;;42.75;19.35;;;;;;;;;;5072287;28;20059;-59
2023/09/13 05:56:33;;;;;;;55.78;17.80;;;;;;;;;;5072619;28;20052;-58
2023/09/13 05:59:00;;;;;;;52.80;20.50;;;;;;;;;;5072723;28;20056;-58
2023/09/13 06:01:27;;;;;;;43.33;18.55;;;;;;;;;;5072449;28;20052;-58
2023/09/13 06:03:54;;;;;;;41.90;18.77;;;;;;;;;;5072563;28;20060;-58
2023/09/13 06:06:20;;;;;;;37.83;17.25;;;;;;;;;;5072649;28;20056;-58
2023/09/13 06:08:48;;;;;;;39.42;19.45;;;;;;;;;;5072573;28;20049;-58
2023/09/13 06:11:17;;;;;;;36.85;18.15;;;;;;;;;;5072621;28;20504;-58
2023/09/13 06:13:44;;;;;;;37.28;18.52;;;;;;;;;;5072483;28;20059;-58
2023/09/13 06:16:11;;;;;;;32.03;17.13;;;;;;;;;;5072310;28;20055;-58
2023/09/13 06:18:37;;;;;;;31.20;16.52;;;;;;;;;;5072324;28;20052;-58
2023/09/13 06:21:04;;;;;;;32.78;15.60;;;;;;;;;;5072369;28;20064;-57
2023/09/13 06:23:35;;;;;;;32.95;15.35;;;;;;;;;;5071912;28;20085;-58
2023/09/13 06:26:03;;;;;;;32.10;15.77;;;;;;;;;;5072415;28;20064;-58
2023/09/13 06:28:30;;;;;;;25.88;15.93;;;;;;;;;;5071812;28;20056;-58
2023/09/13 06:30:57;;;;;;;30.75;15.63;;;;;;;;;;5072291;28;20064;-58
2023/09/13 06:33:25;;;;;;;30.30;14.93;;;;;;;;;;5071741;28;20494;-58
2023/09/13 06:35:51;;;;;;;33.58;15.80;;;;;;;;;;5071796;28;20049;-58
2023/09/13 06:38:18;;;;;;;27.88;15.10;;;;;;;;;;5071765;28;20052;-58
2023/09/13 06:40:47;;;;;;;33.35;14.48;;;;;;;;;;5071432;28;20061;-58
2023/09/13 06:43:14;;;;;;;;;;;;;;;;;;5072242;28;20049;-58
2023/09/13 06:45:42;;;;;;;26.77;14.85;;;;;;;;;;5071886;28;19932;-58
2023/09/13 06:48:09;;;;;;;30.42;15.05;;;;;;;;;;5071947;28;20055;-58
2023/09/13 06:50:36;;;;;;;26.20;14.27;;;;;;;;;;5071848;28;20059;-58
2023/09/13 06:53:03;;;;;;;27.17;13.55;;;;;;;;;;5071599;28;20048;-58
2023/09/13 06:55:30;;;;;;;27.10;14.27;;;;;;;;;;5071613;28;20132;-59
2023/09/13 06:57:57;;;;;;;27.50;13.55;;;;;;;;;;5071983;28;20056;-58
2023/09/13 07:00:24;;;;;;;26.58;12.77;;;;;;;;;;5071505;28;20085;-58
2023/09/13 07:02:52;;;;;;;23.27;13.60;;;;;;;;;;5071605;28;20075;-59
2023/09/13 07:05:19;;;;;;;23.05;14.70;;;;;;;;;;5071825;28;20048;-58
2023/09/13 07:07:46;;;;;;;24.77;15.32;;;;;;;;;;5071582;28;20060;-59
2023/09/13 07:10:13;;;;;;;29.35;16.58;;;;;;;;;;5071573;28;20056;-59
2023/09/13 07:12:40;;;;;;;21.75;12.93;;;;;;;;;;5071597;28;20059;-59
2023/09/13 07:15:08;;;;;;;23.60;14.00;;;;;;;;;;5071774;28;20467;-59
2023/09/13 07:17:34;;;;;;;27.60;14.55;;;;;;;;;;5071665;28;20060;-58
2023/09/13 07:20:04;;;;;;;24.30;13.60;;;;;;;;;;5071707;28;20048;-59
2023/09/13 07:22:31;;;;;;;26.13;13.98;;;;;;;;;;5071438;28;20049;-59
2023/09/13 07:24:58;;;;;;;25.98;13.73;;;;;;;;;;5071364;28;20048;-59
2023/09/13 07:27:25;;;;;;;24.63;13.10;;;;;;;;;;5072798;28;20049;-59
2023/09/13 07:29:51;;;;;;;24.95;14.95;;;;;;;;;;5075372;28;20063;-59
2023/09/13 07:32:18;;;;;;;24.65;13.45;;;;;;;;;;5075455;28;20044;-59
2023/09/13 07:34:45;;;;;;;24.83;13.20;;;;;;;;;;5075012;28;20060;-58
2023/09/13 07:37:13;;;;;;;24.08;14.30;;;;;;;;;;5075267;28;20064;-59
2023/09/13 07:39:42;;;;;;;27.45;13.15;;;;;;;;;;5074744;28;20057;-59
2023/09/13 07:42:09;;;;;;;25.57;14.23;;;;;;;;;;5075585;28;20048;-58
2023/09/13 07:44:35;;;;;;;19.90;11.05;;;;;;;;;;5074832;28;20057;-58
2023/09/13 07:47:02;;;;;;;21.33;13.05;;;;;;;;;;5074994;28;20052;-58
2023/09/13 07:49:29;;;;;;;20.40;11.88;;;;;;;;;;5075111;28;20465;-58
2023/09/13 07:51:56;;;;;;;19.52;11.98;;;;;;;;;;5075255;28;20052;-58
2023/09/13 07:54:25;;;;;;;20.40;11.52;;;;;;;;;;5075051;28;20591;-59
2023/09/13 07:56:52;;;;;;;19.92;10.55;;;;;;;;;;5075271;28;20052;-59
2023/09/13 07:59:18;;;;;;;16.95;9.48;;;;;;;;;;5074775;28;20053;-59
2023/09/13 08:01:45;;;;;;;16.23;8.82;;;;;;;;;;5075050;28;20063;-59
2023/09/13 08:04:12;;;;;;;15.30;8.57;;;;;;;;;;5074359;28;20044;-59
2023/09/13 08:06:41;;;;;;;15.60;8.65;;;;;;;;;;5074761;28;20405;-60
2023/09/13 08:09:08;;;;;;;14.55;9.35;;;;;;;;;;5074752;28;20520;-60
2023/09/13 08:11:36;;;;;;;21.52;10.80;;;;;;;;;;5074782;28;20052;-59
2023/09/13 08:14:02;;;;;;;17.90;8.98;;;;;;;;;;5074758;28;20056;-60
2023/09/13 08:16:29;;;;;;;16.73;10.13;;;;;;;;;;5074598;28;20120;-59
2023/09/13 08:18:56;;;;;;;16.83;10.00;;;;;;;;;;5074671;28;20057;-59
2023/09/13 08:21:23;;;;;;;19.30;11.32;;;;;;;;;;5074611;28;20076;-58
2023/09/13 08:23:50;;;;;;;20.55;10.68;;;;;;;;;;5074215;28;20458;-59
2023/09/13 08:26:17;;;;;;;19.70;10.50;;;;;;;;;;5074213;28;20059;-58
2023/09/13 08:28:45;;;;;;;17.25;11.05;;;;;;;;;;5073836;28;20057;-58
2023/09/13 08:31:12;;;;;;;15.43;8.97;;;;;;;;;;5074134;28;20064;-59
2023/09/13 08:33:39;;;;;;;15.85;8.40;;;;;;;;;;5073855;28;20056;-59
2023/09/13 08:36:07;;;;;;;14.10;9.65;;;;;;;;;;5074164;28;20052;-58
2023/09/13 08:38:33;;;;;;;14.90;8.27;;;;;;;;;;5074040;28;20080;-58
2023/09/13 08:41:01;;;;;;;15.07;8.52;;;;;;;;;;5073337;28;20410;-59
2023/09/13 08:43:29;;;;;;;15.43;8.50;;;;;;;;;;5073701;28;20048;-58
2023/09/13 08:45:57;;;;;;;13.75;8.00;;;;;;;;;;5073617;28;20052;-58
2023/09/13 08:48:25;;;;;;;14.48;8.50;;;;;;;;;;5073129;28;20056;-58
2023/09/13 08:50:52;;;;;;;12.35;6.82;;;;;;;;;;5073483;28;20056;-58
2023/09/13 08:53:19;;;;;;;11.45;6.47;;;;;;;;;;5073561;28;20044;-59
2023/09/13 08:55:47;;;;;;;11.73;6.75;;;;;;;;;;5073442;28;20059;-58
2023/09/13 08:58:14;;;;;;;12.07;7.82;;;;;;;;;;5073223;28;20052;-58
2023/09/13 09:00:42;;;;;;;13.27;7.68;;;;;;;;;;5073450;28;20056;-58
2023/09/13 09:03:12;;;;;;;11.05;6.45;;;;;;;;;;5072959;28;20402;-59
2023/09/13 09:05:39;;;;;;;11.80;6.68;;;;;;;;;;5072901;28;20425;-59
2023/09/13 09:08:07;;;;;;;12.70;7.15;;;;;;;;;;5073001;28;20159;-59
2023/09/13 09:10:34;;;;;;;11.88;6.93;;;;;;;;;;5073265;28;20053;-58
2023/09/13 09:13:01;;;;;;;15.98;6.97;;;;;;;;;;5072992;28;20053;-58
2023/09/13 09:15:29;;;;;;;11.98;7.50;;;;;;;;;;5072938;28;20465;-58
2023/09/13 09:17:56;;;;;;;14.50;7.88;;;;;;;;;;5073106;28;20052;-58
2023/09/13 09:20:28;;;;;;;11.00;6.45;;;;;;;;;;5073200;28;20053;-58
2023/09/13 09:22:56;;;;;;;9.77;6.07;;;;;;;;;;5072977;28;20048;-58
2023/09/13 09:25:25;;;;;;;10.70;6.47;;;;;;;;;;5073122;28;20063;-59
2023/09/13 09:27:52;;;;;;;12.25;7.30;;;;;;;;;;5072881;28;20127;-59
2023/09/13 09:30:28;;;;;;;9.80;6.25;;;;;;;;;;5073306;28;20055;-58
2023/09/13 09:32:59;;;;;;;8.57;5.47;;;;;;;;;;5072868;28;20486;-58
2023/09/13 09:35:28;;;;;;;8.32;5.40;;;;;;;;;;5073054;28;20064;-58
2023/09/13 09:37:54;;;;;;;6.93;5.10;;;;;;;;;;5072848;28;20497;-58
2023/09/13 09:40:21;;;;;;;8.43;4.90;;;;;;;;;;5072616;28;20060;-59
2023/09/13 09:42:52;;;;;;;6.57;4.22;;;;;;;;;;5072858;28;20059;-59
2023/09/13 09:45:18;;;;;;;5.75;4.03;;;;;;;;;;5073026;28;20050;-59
2023/09/13 09:47:45;;;;;;;6.63;3.67;;;;;;;;;;5072586;28;20075;-59
2023/09/13 09:50:13;;;;;;;7.75;4.45;;;;;;;;;;5072208;28;20052;-59
2023/09/13 09:52:41;;;;;;;5.10;3.58;;;;;;;;;;5072636;28;20044;-60
2023/09/13 09:55:08;;;;;;;7.32;4.78;;;;;;;;;;5072822;28;20092;-60
2023/09/13 09:57:35;;;;;;;11.82;5.45;;;;;;;;;;5072945;28;20063;-59
2023/09/13 10:00:07;;;;;;;5.97;3.83;;;;;;;;;;5072392;28;20052;-59
2023/09/13 10:02:34;;;;;;;7.93;4.68;;;;;;;;;;5072487;28;20075;-59
2023/09/13 10:05:01;;;;;;;7.72;4.47;;;;;;;;;;5072534;28;20061;-60
2023/09/13 10:07:28;;;;;;;8.55;5.05;;;;;;;;;;5072561;28;20056;-60
2023/09/13 10:09:56;;;;;;;7.35;4.68;;;;;;;;;;5072592;28;20067;-60
2023/09/13 10:12:23;;;;;;;8.85;3.78;;;;;;;;;;5072659;28;20052;-59
2023/09/13 10:14:49;;;;;;;7.07;4.30;;;;;;;;;;5072498;28;20049;-59
2023/09/13 10:17:17;;;;;;;6.70;4.18;;;;;;;;;;5072538;28;20055;-59
2023/09/13 10:19:48;;;;;;;7.03;3.45;;;;;;;;;;5084574;28;20052;-58
2023/09/13 10:22:18;;;;;;;7.30;3.92;;;;;;;;;;5093104;28;20048;-59
2023/09/13 10:24:48;;;;;;;6.97;3.90;;;;;;;;;;5092477;28;20477;-59
2023/09/13 10:27:17;;;;;;;4.72;3.30;;;;;;;;;;5092478;28;20055;-59
2023/09/13 10:29:43;;;;;;;;;;;;;;;;;;5092982;28;20059;-58
2023/09/13 10:32:12;;;;;;;7.30;3.97;;;;;;;;;;5092819;28;20377;-58
2023/09/13 10:34:38;;;;;;;;;;;;;;;;;;5092674;28;20055;-59
2023/09/13 10:37:09;;;;;;;6.30;4.15;;;;;;;;;;5092519;28;19920;-58
2023/09/13 10:39:38;;;;;;;5.57;4.00;;;;;;;;;;5092780;28;20059;-59
2023/09/13 10:42:07;;;;;;;5.40;3.80;;;;;;;;;;5052628;28;20390;-58
2023/09/13 10:44:36;;;;;;;6.90;4.35;;;;;;;;;;5052456;28;20052;-59
2023/09/13 10:47:04;;;;;;;6.60;3.85;;;;;;;;;;5052323;28;20057;-60
2023/09/13 10:49:30;;;;;;;6.70;4.35;;;;;;;;;;5052285;28;20048;-59
2023/09/13 10:51:58;;;;;;;4.65;3.47;;;;;;;;;;5052568;28;20056;-59
2023/09/13 10:54:26;;;;;;;6.13;3.92;;;;;;;;;;5052354;28;20474;-58
2023/09/13 10:56:53;;;;;;;6.55;4.13;;;;;;;;;;5052501;28;20490;-59
2023/09/13 10:59:22;;;;;;;5.68;4.13;;;;;;;;;;5052288;28;20359;-59
2023/09/13 11:01:50;;;;;;;6.22;3.90;;;;;;;;;;5052893;28;20064;-58
2023/09/13 11:04:18;;;;;;;7.95;4.60;;;;;;;;;;5056303;28;20057;-58
2023/09/13 11:06:45;;;;;;;3.88;2.17;;;;;;;;;;5056343;28;20471;-58
2023/09/13 11:09:11;;;;;;;2.88;1.80;;;;;;;;;;5055925;28;20053;-59
2023/09/13 11:11:37;;;;;;;2.53;1.98;;;;;;;;;;5056256;28;20049;-59
2023/09/13 11:14:09;;;;;;;2.65;1.50;;;;;;;;;;5055870;28;20060;-58
2023/09/13 11:16:36;;;;;;;3.13;1.60;;;;;;;;;;5056237;28;20413;-58
2023/09/13 11:19:05;;;;;;;2.25;1.23;;;;;;;;;;5045465;28;20057;-58
2023/09/13 11:21:45;;;;;;;3.13;1.30;;;;;;;;;;5036131;28;20153;-58
2023/09/13 11:24:13;;;;;;;3.15;1.45;;;;;;;;;;5035894;28;20049;-58
2023/09/13 11:26:42;;;;;;;3.08;1.40;;;;;;;;;;5039165;28;20053;-58
2023/09/13 11:29:20;;;;;;;2.50;1.40;;;;;;;;;;5055670;28;20060;-57
2023/09/13 11:31:56;;;;;;;2.40;1.75;;;;;;;;;;5056019;28;20498;-58
2023/09/13 11:34:24;;;;;;;4.38;2.15;;;;;;;;;;5055560;28;20065;-58
2023/09/13 11:36:54;;;;;;;2.88;1.80;;;;;;;;;;5055779;28;20063;-58
2023/09/13 11:39:21;;;;;;;3.28;1.60;;;;;;;;;;5055181;28;20056;-59
2023/09/13 11:41:49;;;;;;;2.17;1.65;;;;;;;;;;5090836;28;20052;-58
2023/09/13 11:44:16;;;;;;;3.38;2.25;;;;;;;;;;5095363;28;20055;-58
2023/09/13 11:46:44;;;;;;;2.70;1.83;;;;;;;;;;5095659;28;20056;-58
2023/09/13 11:49:11;;;;;;;5.03;3.22;;;;;;;;;;5095537;28;20166;-58
2023/09/13 11:51:46;;;;;;;4.10;3.08;;;;;;;;;;5095657;28;20477;-58
2023/09/13 11:54:16;;;;;;;4.95;3.35;;;;;;;;;;5095454;28;20155;-59
2023/09/13 11:56:43;;;;;;;3.17;2.10;;;;;;;;;;5094967;28;20432;-58
2023/09/13 11:59:11;;;;;;;2.95;1.98;;;;;;;;;;5095666;28;20059;-58
2023/09/13 12:01:42;;;;;;;4.65;2.30;;;;;;;;;;5095616;28;20048;-58
2023/09/13 12:04:09;;;;;;;3.15;1.83;;;;;;;;;;5095075;28;20412;-58
2023/09/13 12:06:44;;;;;;;4.35;2.35;;;;;;;;;;5095450;28;20048;-59
2023/09/13 12:09:12;;;;;;;4.70;2.80;;;;;;;;;;5095169;28;20059;-59
2023/09/13 12:11:39;;;;;;;3.55;2.53;;;;;;;;;;5095402;28;20055;-59
2023/09/13 12:14:05;;;;;;;3.03;2.05;;;;;;;;;;5094581;28;20052;-59
2023/09/13 12:16:32;;;;;;;4.68;2.47;;;;;;;;;;5095428;28;20048;-59
2023/09/13 12:18:59;;;;;;;3.03;2.35;;;;;;;;;;5095241;28;20511;-59
2023/09/13 12:21:26;;;;;;;3.25;2.28;;;;;;;;;;5095165;28;20492;-58
2023/09/13 12:23:54;;;;;;;7.30;3.08;;;;;;;;;;5094973;28;20062;-59
2023/09/13 12:26:23;;;;;;;4.68;2.58;;;;;;;;;;5093833;28;20074;-59
2023/09/13 12:28:51;;;;;;;3.13;2.33;;;;;;;;;;5087055;28;20465;-60
2023/09/13 12:31:18;;;;;;;5.05;3.05;;;;;;;;;;5095020;28;20059;-59
2023/09/13 12:33:48;;;;;;;5.43;3.10;;;;;;;;;;5094654;28;20059;-59
2023/09/13 12:36:14;;;;;;;;;;;;;;;;;;5095309;28;20071;-59
2023/09/13 12:38:47;;;;;;;5.78;3.25;;;;;;;;;;5094861;28;19920;-58
2023/09/13 12:41:17;;;;;;;3.08;2.63;;;;;;;;;;5093881;28;20063;-58
2023/09/13 12:43:43;;;;;;;;;;;;;;;;;;5094734;28;20074;-58
2023/09/13 12:46:13;;;;;;;2.75;1.73;;;;;;;;;;5094542;28;20284;-58
2023/09/13 12:48:40;;;;;;;2.60;1.30;;;;;;;;;;5094535;28;20063;-57
2023/09/13 12:51:07;;;;;;;4.68;1.98;;;;;;;;;;5094580;28;20056;-58
2023/09/13 12:53:35;;;;;;;4.32;1.90;;;;;;;;;;5094261;28;20436;-58
2023/09/13 12:56:02;;;;;;;5.07;2.35;;;;;;;;;;5094396;28;20055;-59
2023/09/13 12:58:30;;;;;;;2.47;1.70;;;;;;;;;;5094507;28;20059;-59
2023/09/13 13:00:58;;;;;;;4.35;2.30;;;;;;;;;;5094375;28;20075;-59
2023/09/13 13:03:28;;;;;;;2.05;1.35;;;;;;;;;;5093625;28;20511;-58
2023/09/13 13:05:56;;;;;;;3.67;1.20;;;;;;;;;;5094022;28;20059;-58
2023/09/13 13:08:33;;;;;;;3.47;1.80;;;;;;;;;;5094193;28;20056;-58
2023/09/13 13:11:00;;;;;;;2.63;1.50;;;;;;;;;;5094301;28;20425;-58
2023/09/13 13:13:36;;;;;;;2.80;1.65;;;;;;;;;;5093673;28;20059;-58
2023/09/13 13:16:04;;;;;;;3.45;1.90;;;;;;;;;;5094005;28;20052;-58
2023/09/13 13:18:31;;;;;;;3.22;2.00;;;;;;;;;;5093787;28;20063;-57
2023/09/13 13:20:58;;;;;;;2.65;1.75;;;;;;;;;;5093656;28;20134;-58
2023/09/13 13:23:25;;;;;;;2.65;1.20;;;;;;;;;;5093791;28;20047;-57
2023/09/13 13:25:52;;;;;;;4.35;1.95;;;;;;;;;;5092729;28;20378;-57
2023/09/13 13:28:19;;;;;;;3.00;1.40;;;;;;;;;;5085253;28;20064;-58
2023/09/13 13:30:47;;;;;;;2.30;1.60;;;;;;;;;;5073257;28;20048;-57
2023/09/13 13:33:14;;;;;;;2.70;1.30;;;;;;;;;;5073041;28;20062;-57
2023/09/13 13:35:41;;;;;;;1.58;0.95;;;;;;;;;;5072770;28;20045;-58
2023/09/13 13:38:08;;;;;;;2.30;1.50;;;;;;;;;;5073303;28;20060;-57
2023/09/13 13:40:35;;;;;;;2.90;1.58;;;;;;;;;;5072553;28;20064;-57
2023/09/13 13:43:02;;;;;;;2.55;1.63;;;;;;;;;;5073072;28;20059;-58
2023/09/13 13:45:29;;;;;;;2.22;1.30;;;;;;;;;;5072662;28;20049;-58
2023/09/13 13:47:57;;;;;;;2.38;1.50;;;;;;;;;;5073238;28;20048;-58
2023/09/13 13:50:24;;;;;;;3.35;1.30;;;;;;;;;;5072896;28;20048;-58
2023/09/13 13:52:50;;;;;;;3.65;1.60;;;;;;;;;;5073209;28;20056;-58
2023/09/13 13:55:17;;;;;;;2.65;1.27;;;;;;;;;;5072868;28;20053;-58
2023/09/13 13:57:45;;;;;;;3.10;1.55;;;;;;;;;;5072757;28;20063;-58
2023/09/13 14:00:13;;;;;;;2.65;1.25;;;;;;;;;;5072487;28;20075;-58
2023/09/13 14:02:40;;;;;;;2.00;1.23;;;;;;;;;;5072852;28;20060;-58
2023/09/13 14:05:09;;;;;;;2.83;1.70;;;;;;;;;;5072755;28;20510;-58
2023/09/13 14:07:36;;;;;;;5.40;1.42;;;;;;;;;;5072686;28;20056;-58
2023/09/13 14:10:02;;;;;;;1.88;0.80;;;;;;;;;;5072640;28;20053;-58
2023/09/13 14:12:29;;;;;;;1.35;0.75;;;;;;;;;;5072649;28;20052;-58
2023/09/13 14:14:56;;;;;;;2.58;0.70;;;;;;;;;;5072437;28;20060;-58
2023/09/13 14:17:24;;;;;;;2.25;0.95;;;;;;;;;;5072760;28;20052;-58
2023/09/13 14:19:51;;;;;;;1.52;0.90;;;;;;;;;;5072819;28;20083;-58
2023/09/13 14:22:19;;;;;;;1.23;0.70;;;;;;;;;;5072510;28;20059;-58
2023/09/13 14:24:46;;;;;;;1.63;0.77;;;;;;;;;;5072542;28;20057;-58
2023/09/13 14:27:13;;;;;;;1.30;0.70;;;;;;;;;;5072603;28;20060;-58
2023/09/13 14:29:41;;;;;;;1.98;0.73;;;;;;;;;;5072042;28;20056;-58
2023/09/13 14:32:09;;;;;;;1.90;0.55;;;;;;;;;;5072329;28;20048;-58
2023/09/13 14:34:39;;;;;;;1.37;0.70;;;;;;;;;;5072017;28;20055;-58
2023/09/13 14:37:07;;;;;;;1.55;0.88;;;;;;;;;;5072045;28;20060;-58
2023/09/13 14:39:35;;;;;;;1.60;0.70;;;;;;;;;;5072312;28;20057;-58